sensor_id;sensor_type;location;lat;lon;timestamp;temperature;humidity
7388;DHT22;3735;50.136;11.062;2022-08-21T00:01:31;14.00;99.90
7388;DHT22;3735;50.136;11.062;2022-08-21T00:03:57;14.00;99.90
7388;DHT22;3735;50.136;11.062;2022-08-21T00:06:23;14.00;99.90
7388;DHT22;3735;50.136;11.062;2022-08-21T00:08:51;14.00;99.90
7388;DHT22;3735;50.136;11.062;2022-08-21T00:11:17;14.00;99.90
7388;DHT22;3735;50.136;11.062;2022-08-21T00:13:44;14.00;99.90
7388;DHT22;3735;50.136;11.062;2022-08-21T00:16:10;14.00;99.90
7388;DHT22;3735;50.136;11.062;2022-08-21T00:18:36;14.00;99.90
7388;DHT22;3735;50.136;11.062;2022-08-21T00:21:03;14.00;99.90
7388;DHT22;3735;50.136;11.062;2022-08-21T00:23:30;14.00;99.90
7388;DHT22;3735;50.136;11.062;2022-08-21T00:25:56;14.00;99.90
7388;DHT22;3735;50.136;11.062;2022-08-21T00:28:21;14.00;99.90
7388;DHT22;3735;50.136;11.062;2022-08-21T00:30:47;14.00;99.90
7388;DHT22;3735;50.136;11.062;2022-08-21T00:33:13;14.00;99.90
7388;DHT22;3735;50.136;11.062;2022-08-21T00:35:41;14.00;99.90
7388;DHT22;3735;50.136;11.062;2022-08-21T00:38:08;14.00;99.90
7388;DHT22;3735;50.136;11.062;2022-08-21T00:40:55;13.90;99.90
7388;DHT22;3735;50.136;11.062;2022-08-21T00:43:29;13.90;99.90
7388;DHT22;3735;50.136;11.062;2022-08-21T00:45:58;13.80;99.90
7388;DHT22;3735;50.136;11.062;2022-08-21T00:48:24;13.80;99.90
7388;DHT22;3735;50.136;11.062;2022-08-21T00:51:03;13.70;99.90
7388;DHT22;3735;50.136;11.062;2022-08-21T00:53:33;13.70;99.90
7388;DHT22;3735;50.136;11.062;2022-08-21T00:56:05;13.60;99.90
7388;DHT22;3735;50.136;11.062;2022-08-21T00:58:34;13.60;99.90
7388;DHT22;3735;50.136;11.062;2022-08-21T01:01:04;13.60;99.90
7388;DHT22;3735;50.136;11.062;2022-08-21T01:03:31;13.60;99.90
7388;DHT22;3735;50.136;11.062;2022-08-21T01:05:58;13.60;99.90
7388;DHT22;3735;50.136;11.062;2022-08-21T01:08:24;13.60;99.90
7388;DHT22;3735;50.136;11.062;2022-08-21T01:10:52;13.50;99.90
7388;DHT22;3735;50.136;11.062;2022-08-21T01:13:20;13.50;99.90
7388;DHT22;3735;50.136;11.062;2022-08-21T01:15:50;13.50;99.90
7388;DHT22;3735;50.136;11.062;2022-08-21T01:18:19;13.60;99.90
7388;DHT22;3735;50.136;11.062;2022-08-21T01:21:16;13.60;99.90
7388;DHT22;3735;50.136;11.062;2022-08-21T01:23:51;13.80;99.90
7388;DHT22;3735;50.136;11.062;2022-08-21T01:26:21;14.00;99.90
7388;DHT22;3735;50.136;11.062;2022-08-21T01:29:00;14.10;99.90
7388;DHT22;3735;50.136;11.062;2022-08-21T01:31:39;14.20;99.90
7388;DHT22;3735;50.136;11.062;2022-08-21T01:34:05;14.30;99.90
7388;DHT22;3735;50.136;11.062;2022-08-21T01:36:31;14.40;99.90
7388;DHT22;3735;50.136;11.062;2022-08-21T01:38:58;14.50;99.90
7388;DHT22;3735;50.136;11.062;2022-08-21T01:41:23;14.60;99.90
7388;DHT22;3735;50.136;11.062;2022-08-21T01:43:49;14.70;99.90
7388;DHT22;3735;50.136;11.062;2022-08-21T01:46:15;14.70;99.90
7388;DHT22;3735;50.136;11.062;2022-08-21T01:48:42;14.80;99.90
7388;DHT22;3735;50.136;11.062;2022-08-21T01:51:09;14.80;99.90
7388;DHT22;3735;50.136;11.062;2022-08-21T01:53:36;14.80;99.90
7388;DHT22;3735;50.136;11.062;2022-08-21T01:56:05;14.90;99.90
7388;DHT22;3735;50.136;11.062;2022-08-21T01:58:32;14.90;99.90
7388;DHT22;3735;50.136;11.062;2022-08-21T02:01:00;15.00;99.90
7388;DHT22;3735;50.136;11.062;2022-08-21T02:03:27;15.10;99.90
7388;DHT22;3735;50.136;11.062;2022-08-21T02:05:54;15.00;99.90
7388;DHT22;3735;50.136;11.062;2022-08-21T02:08:20;15.10;99.90
7388;DHT22;3735;50.136;11.062;2022-08-21T02:10:50;15.10;99.90
7388;DHT22;3735;50.136;11.062;2022-08-21T02:13:17;15.10;99.90
7388;DHT22;3735;50.136;11.062;2022-08-21T02:15:43;15.20;99.90
7388;DHT22;3735;50.136;11.062;2022-08-21T02:18:09;15.30;99.90
7388;DHT22;3735;50.136;11.062;2022-08-21T02:20:40;15.30;99.90
7388;DHT22;3735;50.136;11.062;2022-08-21T02:23:10;15.30;99.90
7388;DHT22;3735;50.136;11.062;2022-08-21T02:25:38;15.30;99.90
7388;DHT22;3735;50.136;11.062;2022-08-21T02:28:07;15.30;99.90
7388;DHT22;3735;50.136;11.062;2022-08-21T02:30:39;15.20;99.90
7388;DHT22;3735;50.136;11.062;2022-08-21T02:33:08;15.20;99.90
7388;DHT22;3735;50.136;11.062;2022-08-21T02:35:35;15.20;99.90
7388;DHT22;3735;50.136;11.062;2022-08-21T02:38:08;15.30;99.90
7388;DHT22;3735;50.136;11.062;2022-08-21T02:40:38;15.20;99.90
7388;DHT22;3735;50.136;11.062;2022-08-21T02:43:06;15.30;99.90
7388;DHT22;3735;50.136;11.062;2022-08-21T02:45:34;15.30;99.90
7388;DHT22;3735;50.136;11.062;2022-08-21T02:48:05;15.30;99.90
7388;DHT22;3735;50.136;11.062;2022-08-21T02:50:38;15.40;99.90
7388;DHT22;3735;50.136;11.062;2022-08-21T02:53:09;15.40;99.90
7388;DHT22;3735;50.136;11.062;2022-08-21T02:55:37;15.40;99.90
7388;DHT22;3735;50.136;11.062;2022-08-21T02:58:06;15.40;99.90
7388;DHT22;3735;50.136;11.062;2022-08-21T03:00:33;15.50;99.90
7388;DHT22;3735;50.136;11.062;2022-08-21T03:03:00;15.50;99.90
7388;DHT22;3735;50.136;11.062;2022-08-21T03:05:28;15.50;99.90
7388;DHT22;3735;50.136;11.062;2022-08-21T03:07:57;15.50;99.90
7388;DHT22;3735;50.136;11.062;2022-08-21T03:10:25;15.50;99.90
7388;DHT22;3735;50.136;11.062;2022-08-21T03:12:51;15.40;99.90
7388;DHT22;3735;50.136;11.062;2022-08-21T03:15:19;15.40;99.90
7388;DHT22;3735;50.136;11.062;2022-08-21T03:17:48;15.30;99.90
7388;DHT22;3735;50.136;11.062;2022-08-21T03:20:17;15.30;99.90
7388;DHT22;3735;50.136;11.062;2022-08-21T03:22:45;15.30;99.90
7388;DHT22;3735;50.136;11.062;2022-08-21T03:25:11;15.30;99.90
7388;DHT22;3735;50.136;11.062;2022-08-21T03:27:37;15.30;99.90
7388;DHT22;3735;50.136;11.062;2022-08-21T03:30:05;15.30;99.90
7388;DHT22;3735;50.136;11.062;2022-08-21T03:32:32;15.30;99.90
7388;DHT22;3735;50.136;11.062;2022-08-21T03:34:59;15.30;99.90
7388;DHT22;3735;50.136;11.062;2022-08-21T03:37:26;15.20;99.90
7388;DHT22;3735;50.136;11.062;2022-08-21T03:39:52;15.30;99.90
7388;DHT22;3735;50.136;11.062;2022-08-21T03:42:18;15.30;99.90
7388;DHT22;3735;50.136;11.062;2022-08-21T03:44:44;15.30;99.90
7388;DHT22;3735;50.136;11.062;2022-08-21T03:47:10;15.30;99.90
7388;DHT22;3735;50.136;11.062;2022-08-21T03:49:37;15.30;99.90
7388;DHT22;3735;50.136;11.062;2022-08-21T03:52:03;15.40;99.90
7388;DHT22;3735;50.136;11.062;2022-08-21T03:54:30;15.40;99.90
7388;DHT22;3735;50.136;11.062;2022-08-21T03:56:56;15.40;99.90
7388;DHT22;3735;50.136;11.062;2022-08-21T03:59:22;15.40;99.90
7388;DHT22;3735;50.136;11.062;2022-08-21T04:01:56;15.40;99.90
7388;DHT22;3735;50.136;11.062;2022-08-21T04:04:25;15.40;99.90
7388;DHT22;3735;50.136;11.062;2022-08-21T04:06:51;15.40;99.90
7388;DHT22;3735;50.136;11.062;2022-08-21T04:09:18;15.40;99.90
7388;DHT22;3735;50.136;11.062;2022-08-21T04:11:45;15.30;99.90
7388;DHT22;3735;50.136;11.062;2022-08-21T04:14:12;15.30;99.90
7388;DHT22;3735;50.136;11.062;2022-08-21T04:16:39;15.40;99.90
7388;DHT22;3735;50.136;11.062;2022-08-21T04:19:07;15.40;99.90
7388;DHT22;3735;50.136;11.062;2022-08-21T04:21:34;15.40;99.90
7388;DHT22;3735;50.136;11.062;2022-08-21T04:24:01;15.40;99.90
7388;DHT22;3735;50.136;11.062;2022-08-21T04:26:27;15.50;99.90
7388;DHT22;3735;50.136;11.062;2022-08-21T04:28:53;15.50;99.90
7388;DHT22;3735;50.136;11.062;2022-08-21T04:31:22;15.50;99.90
7388;DHT22;3735;50.136;11.062;2022-08-21T04:33:49;15.50;99.90
7388;DHT22;3735;50.136;11.062;2022-08-21T04:36:16;15.50;99.90
7388;DHT22;3735;50.136;11.062;2022-08-21T04:38:42;15.50;99.90
7388;DHT22;3735;50.136;11.062;2022-08-21T04:41:08;15.60;99.90
7388;DHT22;3735;50.136;11.062;2022-08-21T04:43:34;15.60;99.90
7388;DHT22;3735;50.136;11.062;2022-08-21T04:46:01;15.70;99.90
7388;DHT22;3735;50.136;11.062;2022-08-21T04:48:27;15.70;99.90
7388;DHT22;3735;50.136;11.062;2022-08-21T04:51:03;15.70;99.90
7388;DHT22;3735;50.136;11.062;2022-08-21T04:53:37;15.70;99.90
7388;DHT22;3735;50.136;11.062;2022-08-21T04:56:31;15.70;99.90
7388;DHT22;3735;50.136;11.062;2022-08-21T04:59:04;15.80;99.90
7388;DHT22;3735;50.136;11.062;2022-08-21T05:01:36;15.80;99.90
7388;DHT22;3735;50.136;11.062;2022-08-21T05:04:04;15.80;99.90
7388;DHT22;3735;50.136;11.062;2022-08-21T05:06:35;15.80;99.90
7388;DHT22;3735;50.136;11.062;2022-08-21T05:09:05;15.90;99.90
7388;DHT22;3735;50.136;11.062;2022-08-21T05:11:32;15.90;99.90
7388;DHT22;3735;50.136;11.062;2022-08-21T05:13:58;15.90;99.90
7388;DHT22;3735;50.136;11.062;2022-08-21T05:16:24;16.00;99.90
7388;DHT22;3735;50.136;11.062;2022-08-21T05:18:50;16.00;99.90
7388;DHT22;3735;50.136;11.062;2022-08-21T05:21:16;16.00;99.90
7388;DHT22;3735;50.136;11.062;2022-08-21T05:23:42;16.10;99.90
7388;DHT22;3735;50.136;11.062;2022-08-21T05:26:08;16.20;99.90
7388;DHT22;3735;50.136;11.062;2022-08-21T05:28:34;16.30;99.90
7388;DHT22;3735;50.136;11.062;2022-08-21T05:31:00;16.40;99.90
7388;DHT22;3735;50.136;11.062;2022-08-21T05:33:26;16.40;99.90
7388;DHT22;3735;50.136;11.062;2022-08-21T05:35:54;16.40;99.90
7388;DHT22;3735;50.136;11.062;2022-08-21T05:38:24;16.50;99.90
7388;DHT22;3735;50.136;11.062;2022-08-21T05:40:52;16.70;99.90
7388;DHT22;3735;50.136;11.062;2022-08-21T05:43:18;16.80;99.90
7388;DHT22;3735;50.136;11.062;2022-08-21T05:45:44;16.90;99.90
7388;DHT22;3735;50.136;11.062;2022-08-21T05:48:13;16.90;99.90
7388;DHT22;3735;50.136;11.062;2022-08-21T05:50:42;16.90;99.90
7388;DHT22;3735;50.136;11.062;2022-08-21T05:53:09;16.90;99.90
7388;DHT22;3735;50.136;11.062;2022-08-21T05:55:37;17.10;99.90
7388;DHT22;3735;50.136;11.062;2022-08-21T05:58:04;17.30;99.90
7388;DHT22;3735;50.136;11.062;2022-08-21T06:00:30;17.40;99.90
7388;DHT22;3735;50.136;11.062;2022-08-21T06:02:57;17.60;99.90
7388;DHT22;3735;50.136;11.062;2022-08-21T06:05:23;17.80;99.90
7388;DHT22;3735;50.136;11.062;2022-08-21T06:07:49;17.90;99.90
7388;DHT22;3735;50.136;11.062;2022-08-21T06:10:15;18.00;99.90
7388;DHT22;3735;50.136;11.062;2022-08-21T06:12:41;18.10;99.90
7388;DHT22;3735;50.136;11.062;2022-08-21T06:15:07;18.20;99.90
7388;DHT22;3735;50.136;11.062;2022-08-21T06:17:34;18.20;99.90
7388;DHT22;3735;50.136;11.062;2022-08-21T06:20:00;18.30;99.90
7388;DHT22;3735;50.136;11.062;2022-08-21T06:22:26;18.40;99.90
7388;DHT22;3735;50.136;11.062;2022-08-21T06:24:52;18.40;99.90
7388;DHT22;3735;50.136;11.062;2022-08-21T06:27:17;18.40;99.90
7388;DHT22;3735;50.136;11.062;2022-08-21T06:29:43;18.30;99.90
7388;DHT22;3735;50.136;11.062;2022-08-21T06:32:13;18.20;99.90
7388;DHT22;3735;50.136;11.062;2022-08-21T06:34:40;18.20;99.90
7388;DHT22;3735;50.136;11.062;2022-08-21T06:37:07;18.30;99.90
7388;DHT22;3735;50.136;11.062;2022-08-21T06:39:33;18.40;99.90
7388;DHT22;3735;50.136;11.062;2022-08-21T06:42:00;18.60;99.90
7388;DHT22;3735;50.136;11.062;2022-08-21T06:44:26;18.90;99.90
7388;DHT22;3735;50.136;11.062;2022-08-21T06:46:51;19.10;99.90
7388;DHT22;3735;50.136;11.062;2022-08-21T06:49:17;19.30;99.90
7388;DHT22;3735;50.136;11.062;2022-08-21T06:51:43;19.50;99.90
7388;DHT22;3735;50.136;11.062;2022-08-21T06:54:09;19.60;99.90
7388;DHT22;3735;50.136;11.062;2022-08-21T06:56:36;19.50;99.90
7388;DHT22;3735;50.136;11.062;2022-08-21T06:59:04;19.50;99.90
7388;DHT22;3735;50.136;11.062;2022-08-21T07:01:31;19.60;99.90
7388;DHT22;3735;50.136;11.062;2022-08-21T07:03:57;19.80;99.90
7388;DHT22;3735;50.136;11.062;2022-08-21T07:06:23;20.00;99.90
7388;DHT22;3735;50.136;11.062;2022-08-21T07:08:50;20.20;99.90
7388;DHT22;3735;50.136;11.062;2022-08-21T07:11:21;20.40;99.90
7388;DHT22;3735;50.136;11.062;2022-08-21T07:13:48;20.70;99.90
7388;DHT22;3735;50.136;11.062;2022-08-21T07:16:16;21.20;99.90
7388;DHT22;3735;50.136;11.062;2022-08-21T07:18:42;21.50;99.90
7388;DHT22;3735;50.136;11.062;2022-08-21T07:21:08;21.70;99.90
7388;DHT22;3735;50.136;11.062;2022-08-21T07:23:47;21.80;99.90
7388;DHT22;3735;50.136;11.062;2022-08-21T07:26:20;22.00;99.90
7388;DHT22;3735;50.136;11.062;2022-08-21T07:28:48;22.60;99.90
7388;DHT22;3735;50.136;11.062;2022-08-21T07:31:16;23.70;99.90
7388;DHT22;3735;50.136;11.062;2022-08-21T07:33:44;24.20;99.90
7388;DHT22;3735;50.136;11.062;2022-08-21T07:36:10;24.60;99.90
7388;DHT22;3735;50.136;11.062;2022-08-21T07:38:36;24.60;99.90
7388;DHT22;3735;50.136;11.062;2022-08-21T07:41:13;24.40;99.90
7388;DHT22;3735;50.136;11.062;2022-08-21T07:43:41;24.80;99.90
7388;DHT22;3735;50.136;11.062;2022-08-21T07:46:07;25.30;99.90
7388;DHT22;3735;50.136;11.062;2022-08-21T07:48:33;25.70;99.90
7388;DHT22;3735;50.136;11.062;2022-08-21T07:51:02;25.80;99.90
7388;DHT22;3735;50.136;11.062;2022-08-21T07:53:32;26.00;99.90
7388;DHT22;3735;50.136;11.062;2022-08-21T07:55:58;26.20;99.90
7388;DHT22;3735;50.136;11.062;2022-08-21T07:58:24;27.10;99.90
7388;DHT22;3735;50.136;11.062;2022-08-21T08:00:50;28.90;99.90
7388;DHT22;3735;50.136;11.062;2022-08-21T08:03:16;30.30;99.90
7388;DHT22;3735;50.136;11.062;2022-08-21T08:05:42;30.80;99.90
7388;DHT22;3735;50.136;11.062;2022-08-21T08:08:08;31.30;99.90
7388;DHT22;3735;50.136;11.062;2022-08-21T08:10:35;31.50;99.90
7388;DHT22;3735;50.136;11.062;2022-08-21T08:13:03;31.80;99.90
7388;DHT22;3735;50.136;11.062;2022-08-21T08:15:29;32.30;99.90
7388;DHT22;3735;50.136;11.062;2022-08-21T08:17:55;33.10;99.90
7388;DHT22;3735;50.136;11.062;2022-08-21T08:20:22;34.10;99.90
7388;DHT22;3735;50.136;11.062;2022-08-21T08:22:49;34.50;99.90
7388;DHT22;3735;50.136;11.062;2022-08-21T08:25:15;34.50;99.90
7388;DHT22;3735;50.136;11.062;2022-08-21T08:27:42;34.70;99.90
7388;DHT22;3735;50.136;11.062;2022-08-21T08:30:10;35.40;99.90
7388;DHT22;3735;50.136;11.062;2022-08-21T08:32:38;35.50;99.90
7388;DHT22;3735;50.136;11.062;2022-08-21T08:35:06;35.90;99.90
7388;DHT22;3735;50.136;11.062;2022-08-21T08:37:33;35.80;99.90
7388;DHT22;3735;50.136;11.062;2022-08-21T08:39:59;35.90;99.90
7388;DHT22;3735;50.136;11.062;2022-08-21T08:42:34;36.10;98.80
7388;DHT22;3735;50.136;11.062;2022-08-21T08:45:16;36.30;98.70
7388;DHT22;3735;50.136;11.062;2022-08-21T08:47:50;36.50;96.50
7388;DHT22;3735;50.136;11.062;2022-08-21T08:50:49;37.00;94.60
7388;DHT22;3735;50.136;11.062;2022-08-21T08:55:55;37.20;90.40
7388;DHT22;3735;50.136;11.062;2022-08-21T08:58:36;37.20;88.10
7388;DHT22;3735;50.136;11.062;2022-08-21T09:01:08;37.20;89.30
7388;DHT22;3735;50.136;11.062;2022-08-21T09:03:41;37.60;90.60
7388;DHT22;3735;50.136;11.062;2022-08-21T09:06:45;38.10;84.00
7388;DHT22;3735;50.136;11.062;2022-08-21T09:09:44;38.80;76.40
7388;DHT22;3735;50.136;11.062;2022-08-21T09:15:40;38.70;72.00
7388;DHT22;3735;50.136;11.062;2022-08-21T09:23:42;37.00;79.50
7388;DHT22;3735;50.136;11.062;2022-08-21T09:26:25;36.10;89.90
7388;DHT22;3735;50.136;11.062;2022-08-21T09:28:59;35.80;93.00
7388;DHT22;3735;50.136;11.062;2022-08-21T09:31:33;35.00;96.90
7388;DHT22;3735;50.136;11.062;2022-08-21T09:34:10;35.80;94.10
7388;DHT22;3735;50.136;11.062;2022-08-21T09:36:44;36.70;88.20
7388;DHT22;3735;50.136;11.062;2022-08-21T09:39:29;37.50;83.10
7388;DHT22;3735;50.136;11.062;2022-08-21T09:42:00;37.00;78.00
7388;DHT22;3735;50.136;11.062;2022-08-21T09:44:38;35.40;92.50
7388;DHT22;3735;50.136;11.062;2022-08-21T09:47:10;35.90;90.50
7388;DHT22;3735;50.136;11.062;2022-08-21T09:49:41;37.20;81.80
7388;DHT22;3735;50.136;11.062;2022-08-21T09:52:20;38.10;72.90
7388;DHT22;3735;50.136;11.062;2022-08-21T09:54:53;38.80;65.80
7388;DHT22;3735;50.136;11.062;2022-08-21T09:57:28;39.70;60.00
7388;DHT22;3735;50.136;11.062;2022-08-21T10:02:48;37.60;69.40
7388;DHT22;3735;50.136;11.062;2022-08-21T10:05:24;37.20;70.80
7388;DHT22;3735;50.136;11.062;2022-08-21T10:07:51;35.40;79.40
7388;DHT22;3735;50.136;11.062;2022-08-21T10:21:04;37.50;87.40
7388;DHT22;3735;50.136;11.062;2022-08-21T10:26:55;39.60;70.20
7388;DHT22;3735;50.136;11.062;2022-08-21T10:29:39;40.10;59.90
7388;DHT22;3735;50.136;11.062;2022-08-21T10:35:50;39.80;58.60
7388;DHT22;3735;50.136;11.062;2022-08-21T10:44:47;37.40;65.00
7388;DHT22;3735;50.136;11.062;2022-08-21T10:47:35;34.80;91.00
7388;DHT22;3735;50.136;11.062;2022-08-21T10:50:29;33.10;99.90
7388;DHT22;3735;50.136;11.062;2022-08-21T10:53:36;33.20;99.90
7388;DHT22;3735;50.136;11.062;2022-08-21T10:59:03;37.00;78.20
7388;DHT22;3735;50.136;11.062;2022-08-21T11:02:03;37.10;72.40
7388;DHT22;3735;50.136;11.062;2022-08-21T11:04:41;35.10;76.40
7388;DHT22;3735;50.136;11.062;2022-08-21T11:10:33;35.30;80.80
7388;DHT22;3735;50.136;11.062;2022-08-21T11:13:23;37.00;76.00
7388;DHT22;3735;50.136;11.062;2022-08-21T11:19:27;38.30;58.20
7388;DHT22;3735;50.136;11.062;2022-08-21T11:22:19;38.00;57.40
7388;DHT22;3735;50.136;11.062;2022-08-21T11:28:00;39.30;51.30
7388;DHT22;3735;50.136;11.062;2022-08-21T11:46:41;39.90;46.30
7388;DHT22;3735;50.136;11.062;2022-08-21T11:49:34;39.80;44.50
7388;DHT22;3735;50.136;11.062;2022-08-21T11:55:12;40.10;43.90
7388;DHT22;3735;50.136;11.062;2022-08-21T11:58:02;40.00;43.00
7388;DHT22;3735;50.136;11.062;2022-08-21T12:03:29;39.40;42.10
7388;DHT22;3735;50.136;11.062;2022-08-21T12:06:07;38.60;42.80
7388;DHT22;3735;50.136;11.062;2022-08-21T12:08:40;38.50;43.10
7388;DHT22;3735;50.136;11.062;2022-08-21T12:11:24;38.40;42.80
7388;DHT22;3735;50.136;11.062;2022-08-21T12:16:39;38.40;40.20
7388;DHT22;3735;50.136;11.062;2022-08-21T12:24:43;38.40;42.10
7388;DHT22;3735;50.136;11.062;2022-08-21T12:30:02;39.20;42.70
7388;DHT22;3735;50.136;11.062;2022-08-21T12:35:20;39.20;41.60
7388;DHT22;3735;50.136;11.062;2022-08-21T12:37:57;39.80;41.80
7388;DHT22;3735;50.136;11.062;2022-08-21T12:40:57;40.10;40.50
7388;DHT22;3735;50.136;11.062;2022-08-21T12:43:38;40.40;40.10
7388;DHT22;3735;50.136;11.062;2022-08-21T12:46:21;40.00;40.40
7388;DHT22;3735;50.136;11.062;2022-08-21T12:49:00;39.70;40.60
7388;DHT22;3735;50.136;11.062;2022-08-21T12:51:52;39.90;40.30
7388;DHT22;3735;50.136;11.062;2022-08-21T12:54:42;40.40;40.20
7388;DHT22;3735;50.136;11.062;2022-08-21T12:57:19;38.20;41.00
7388;DHT22;3735;50.136;11.062;2022-08-21T12:59:58;35.90;44.40
7388;DHT22;3735;50.136;11.062;2022-08-21T13:02:32;35.30;48.30
7388;DHT22;3735;50.136;11.062;2022-08-21T13:05:05;36.50;48.70
7388;DHT22;3735;50.136;11.062;2022-08-21T13:07:36;36.90;46.60
7388;DHT22;3735;50.136;11.062;2022-08-21T13:13:02;36.10;49.20
7388;DHT22;3735;50.136;11.062;2022-08-21T13:15:33;37.70;47.80
7388;DHT22;3735;50.136;11.062;2022-08-21T13:18:03;38.30;45.70
7388;DHT22;3735;50.136;11.062;2022-08-21T13:20:35;38.70;45.90
7388;DHT22;3735;50.136;11.062;2022-08-21T13:23:07;39.40;44.60
7388;DHT22;3735;50.136;11.062;2022-08-21T13:25:45;40.00;44.40
7388;DHT22;3735;50.136;11.062;2022-08-21T13:28:12;40.40;43.00
7388;DHT22;3735;50.136;11.062;2022-08-21T13:30:49;40.80;42.00
7388;DHT22;3735;50.136;11.062;2022-08-21T13:33:21;40.90;41.50
7388;DHT22;3735;50.136;11.062;2022-08-21T13:36:03;40.90;40.10
7388;DHT22;3735;50.136;11.062;2022-08-21T13:38:35;40.40;40.60
7388;DHT22;3735;50.136;11.062;2022-08-21T13:41:24;38.30;41.60
7388;DHT22;3735;50.136;11.062;2022-08-21T13:43:58;36.70;45.20
7388;DHT22;3735;50.136;11.062;2022-08-21T13:46:30;36.60;47.40
7388;DHT22;3735;50.136;11.062;2022-08-21T13:49:00;36.70;47.00
7388;DHT22;3735;50.136;11.062;2022-08-21T13:51:29;36.80;48.00
7388;DHT22;3735;50.136;11.062;2022-08-21T13:53:58;38.00;46.30
7388;DHT22;3735;50.136;11.062;2022-08-21T13:56:30;39.10;46.00
7388;DHT22;3735;50.136;11.062;2022-08-21T13:59:00;39.70;44.80
7388;DHT22;3735;50.136;11.062;2022-08-21T14:01:30;39.80;43.40
7388;DHT22;3735;50.136;11.062;2022-08-21T14:04:06;39.70;41.00
7388;DHT22;3735;50.136;11.062;2022-08-21T14:06:38;39.40;42.30
7388;DHT22;3735;50.136;11.062;2022-08-21T14:09:26;39.00;42.50
7388;DHT22;3735;50.136;11.062;2022-08-21T14:12:02;38.90;43.60
7388;DHT22;3735;50.136;11.062;2022-08-21T14:14:42;38.30;43.10
7388;DHT22;3735;50.136;11.062;2022-08-21T14:17:28;37.20;45.10
7388;DHT22;3735;50.136;11.062;2022-08-21T14:19:56;36.10;49.10
7388;DHT22;3735;50.136;11.062;2022-08-21T14:25:11;37.20;48.80
7388;DHT22;3735;50.136;11.062;2022-08-21T14:28:03;37.90;47.30
7388;DHT22;3735;50.136;11.062;2022-08-21T14:30:43;38.40;46.10
7388;DHT22;3735;50.136;11.062;2022-08-21T14:33:20;38.50;46.00
7388;DHT22;3735;50.136;11.062;2022-08-21T14:35:51;38.30;43.60
7388;DHT22;3735;50.136;11.062;2022-08-21T14:38:21;38.40;44.80
7388;DHT22;3735;50.136;11.062;2022-08-21T14:40:55;38.50;43.10
7388;DHT22;3735;50.136;11.062;2022-08-21T14:43:26;38.40;44.50
7388;DHT22;3735;50.136;11.062;2022-08-21T14:45:53;38.40;43.00
7388;DHT22;3735;50.136;11.062;2022-08-21T14:48:20;38.60;42.90
7388;DHT22;3735;50.136;11.062;2022-08-21T14:50:46;38.10;42.10
7388;DHT22;3735;50.136;11.062;2022-08-21T14:53:12;37.70;42.50
7388;DHT22;3735;50.136;11.062;2022-08-21T14:55:39;37.40;42.60
7388;DHT22;3735;50.136;11.062;2022-08-21T14:58:25;37.10;43.00
7388;DHT22;3735;50.136;11.062;2022-08-21T15:00:52;37.00;42.50
7388;DHT22;3735;50.136;11.062;2022-08-21T15:03:20;36.50;43.60
7388;DHT22;3735;50.136;11.062;2022-08-21T15:05:49;35.50;43.50
7388;DHT22;3735;50.136;11.062;2022-08-21T15:08:16;33.90;46.30
7388;DHT22;3735;50.136;11.062;2022-08-21T15:10:43;32.90;52.10
7388;DHT22;3735;50.136;11.062;2022-08-21T15:13:09;33.60;55.30
7388;DHT22;3735;50.136;11.062;2022-08-21T15:15:44;34.30;55.60
7388;DHT22;3735;50.136;11.062;2022-08-21T15:18:13;34.60;54.10
7388;DHT22;3735;50.136;11.062;2022-08-21T15:20:39;35.00;53.40
7388;DHT22;3735;50.136;11.062;2022-08-21T15:23:06;35.50;50.50
7388;DHT22;3735;50.136;11.062;2022-08-21T15:25:34;35.90;50.20
7388;DHT22;3735;50.136;11.062;2022-08-21T15:28:02;35.90;50.60
7388;DHT22;3735;50.136;11.062;2022-08-21T15:30:30;36.00;49.60
7388;DHT22;3735;50.136;11.062;2022-08-21T15:32:57;36.10;49.20
7388;DHT22;3735;50.136;11.062;2022-08-21T15:35:22;36.00;49.50
7388;DHT22;3735;50.136;11.062;2022-08-21T15:37:48;35.70;50.20
7388;DHT22;3735;50.136;11.062;2022-08-21T15:40:15;35.70;51.80
7388;DHT22;3735;50.136;11.062;2022-08-21T15:42:42;35.80;51.10
7388;DHT22;3735;50.136;11.062;2022-08-21T15:45:10;35.70;50.00
7388;DHT22;3735;50.136;11.062;2022-08-21T15:47:38;35.60;49.80
7388;DHT22;3735;50.136;11.062;2022-08-21T15:50:12;35.40;50.70
7388;DHT22;3735;50.136;11.062;2022-08-21T15:52:40;35.30;49.60
7388;DHT22;3735;50.136;11.062;2022-08-21T15:55:07;34.90;51.30
7388;DHT22;3735;50.136;11.062;2022-08-21T15:57:35;34.70;51.80
7388;DHT22;3735;50.136;11.062;2022-08-21T16:00:14;34.70;52.70
7388;DHT22;3735;50.136;11.062;2022-08-21T16:02:46;34.50;53.20
7388;DHT22;3735;50.136;11.062;2022-08-21T16:05:15;34.40;53.60
7388;DHT22;3735;50.136;11.062;2022-08-21T16:07:46;34.30;51.60
7388;DHT22;3735;50.136;11.062;2022-08-21T16:10:15;34.10;51.20
7388;DHT22;3735;50.136;11.062;2022-08-21T16:12:52;33.90;53.20
7388;DHT22;3735;50.136;11.062;2022-08-21T16:15:21;34.10;53.30
7388;DHT22;3735;50.136;11.062;2022-08-21T16:17:49;34.20;52.70
7388;DHT22;3735;50.136;11.062;2022-08-21T16:20:25;34.00;52.50
7388;DHT22;3735;50.136;11.062;2022-08-21T16:22:54;33.50;51.60
7388;DHT22;3735;50.136;11.062;2022-08-21T16:25:22;33.20;53.30
7388;DHT22;3735;50.136;11.062;2022-08-21T16:27:51;33.10;53.90
7388;DHT22;3735;50.136;11.062;2022-08-21T16:30:20;33.10;53.50
7388;DHT22;3735;50.136;11.062;2022-08-21T16:32:46;32.90;54.80
7388;DHT22;3735;50.136;11.062;2022-08-21T16:35:18;32.90;56.20
7388;DHT22;3735;50.136;11.062;2022-08-21T16:37:45;32.80;53.80
7388;DHT22;3735;50.136;11.062;2022-08-21T16:40:12;32.70;54.70
7388;DHT22;3735;50.136;11.062;2022-08-21T16:42:40;32.40;55.30
7388;DHT22;3735;50.136;11.062;2022-08-21T16:45:10;32.20;56.10
7388;DHT22;3735;50.136;11.062;2022-08-21T16:47:38;31.90;56.70
7388;DHT22;3735;50.136;11.062;2022-08-21T16:50:05;31.10;58.40
7388;DHT22;3735;50.136;11.062;2022-08-21T16:52:33;30.20;62.60
7388;DHT22;3735;50.136;11.062;2022-08-21T16:54:59;29.40;66.90
7388;DHT22;3735;50.136;11.062;2022-08-21T16:57:25;28.70;75.60
7388;DHT22;3735;50.136;11.062;2022-08-21T16:59:52;28.10;91.10
7388;DHT22;3735;50.136;11.062;2022-08-21T17:02:34;27.70;97.80
7388;DHT22;3735;50.136;11.062;2022-08-21T17:05:03;27.30;99.90
7388;DHT22;3735;50.136;11.062;2022-08-21T17:07:32;26.90;99.90
7388;DHT22;3735;50.136;11.062;2022-08-21T17:09:58;26.60;99.90
7388;DHT22;3735;50.136;11.062;2022-08-21T17:12:24;26.40;99.90
7388;DHT22;3735;50.136;11.062;2022-08-21T17:14:50;26.20;99.90
7388;DHT22;3735;50.136;11.062;2022-08-21T17:17:16;26.00;99.90
7388;DHT22;3735;50.136;11.062;2022-08-21T17:19:43;25.80;99.90
7388;DHT22;3735;50.136;11.062;2022-08-21T17:22:10;25.70;99.90
7388;DHT22;3735;50.136;11.062;2022-08-21T17:24:36;25.60;99.90
7388;DHT22;3735;50.136;11.062;2022-08-21T17:27:04;25.40;99.90
7388;DHT22;3735;50.136;11.062;2022-08-21T17:29:35;25.30;99.90
7388;DHT22;3735;50.136;11.062;2022-08-21T17:32:09;25.20;99.90
7388;DHT22;3735;50.136;11.062;2022-08-21T17:34:37;25.10;99.90
7388;DHT22;3735;50.136;11.062;2022-08-21T17:37:04;24.90;99.90
7388;DHT22;3735;50.136;11.062;2022-08-21T17:39:30;24.90;99.90